Time;durP1;ratioP1;P1;durP2;ratioP2;P2;SDS_P1;SDS_P2;PMS_P1;PMS_P2;Temp;Humidity;BMP_temperature;BMP_pressure;BME280_temperature;BME280_humidity;BME280_pressure;Samples;Min_cycle;Max_cycle;Signal;HPM_P1;HPM_P2
2023/01/29 00:00:34;;;;;;;8.00;5.20;;;;;;;;;;5112546;28;20658;-31
2023/01/29 00:03:01;;;;;;;5.77;5.10;;;;;;;;;;5114075;28;20231;-33
2023/01/29 00:05:30;;;;;;;8.63;5.93;;;;;;;;;;5114071;28;20295;-30
2023/01/29 00:07:57;;;;;;;7.50;5.43;;;;;;;;;;5113167;28;20287;-29
2023/01/29 00:10:25;;;;;;;6.77;5.20;;;;;;;;;;5113604;28;20203;-32
2023/01/29 00:12:52;;;;;;;8.77;5.10;;;;;;;;;;5114203;28;20223;-33
2023/01/29 00:15:19;;;;;;;7.03;4.70;;;;;;;;;;5112843;28;20200;-30
2023/01/29 00:17:46;;;;;;;4.93;4.30;;;;;;;;;;5113619;28;20208;-31
2023/01/29 00:23:19;;;;;;;5.90;4.57;;;;;;;;;;5112506;28;20223;-32
2023/01/29 00:25:46;;;;;;;7.53;4.50;;;;;;;;;;5114016;28;20210;-30
2023/01/29 00:28:14;;;;;;;5.13;4.63;;;;;;;;;;5114267;28;20206;-33
2023/01/29 00:30:41;;;;;;;6.33;4.80;;;;;;;;;;5112796;28;20212;-32
2023/01/29 00:33:10;;;;;;;5.70;4.40;;;;;;;;;;5115433;28;20231;-31
2023/01/29 00:35:40;;;;;;;6.03;4.97;;;;;;;;;;5115841;28;20208;-30
2023/01/29 00:38:07;;;;;;;7.90;4.47;;;;;;;;;;5113908;28;20198;-33
2023/01/29 00:49:07;;;;;;;6.93;5.17;;;;;;;;;;5113108;28;20606;-29
2023/01/29 00:51:34;;;;;;;6.87;5.13;;;;;;;;;;5113608;28;20208;-27
2023/01/29 00:54:05;;;;;;;4.60;4.10;;;;;;;;;;5112068;28;20314;-31
2023/01/29 00:56:35;;;;;;;7.73;5.40;;;;;;;;;;5114724;28;20192;-29
2023/01/29 00:59:02;;;;;;;5.53;4.93;;;;;;;;;;5115612;28;20238;-29
2023/01/29 01:04:14;;;;;;;5.13;4.37;;;;;;;;;;5115868;28;20214;-34
2023/01/29 01:06:42;;;;;;;5.40;4.57;;;;;;;;;;5115895;28;20204;-30
2023/01/29 01:11:56;;;;;;;8.10;5.70;;;;;;;;;;5115703;28;20222;-30
2023/01/29 01:14:24;;;;;;;6.73;5.20;;;;;;;;;;5112919;28;20220;-28
2023/01/29 01:16:51;;;;;;;5.47;4.17;;;;;;;;;;5113097;28;20681;-29
2023/01/29 01:19:18;;;;;;;6.13;5.23;;;;;;;;;;5113835;28;20231;-34
2023/01/29 01:21:47;;;;;;;5.77;5.17;;;;;;;;;;5114155;28;20199;-32
2023/01/29 01:24:14;;;;;;;6.00;4.87;;;;;;;;;;5112567;28;20263;-33
2023/01/29 01:26:41;;;;;;;6.73;5.73;;;;;;;;;;5112678;28;20200;-32
2023/01/29 01:29:09;;;;;;;6.53;5.40;;;;;;;;;;5111546;28;20211;-30
2023/01/29 01:31:37;;;;;;;10.10;6.20;;;;;;;;;;5112177;28;20230;-32
2023/01/29 01:34:04;;;;;;;7.17;5.47;;;;;;;;;;5112395;28;20339;-30
2023/01/29 01:36:31;;;;;;;7.60;5.63;;;;;;;;;;5112956;28;20216;-32
2023/01/29 01:38:58;;;;;;;6.57;5.40;;;;;;;;;;5111608;28;20228;-33
2023/01/29 01:41:25;;;;;;;6.73;5.50;;;;;;;;;;5111865;28;20208;-31
2023/01/29 01:43:54;;;;;;;7.17;5.13;;;;;;;;;;5112190;28;20224;-29
2023/01/29 01:46:23;;;;;;;6.53;5.10;;;;;;;;;;5111050;28;20658;-29
2023/01/29 01:48:53;;;;;;;5.23;4.23;;;;;;;;;;5112029;28;20200;-32
2023/01/29 01:51:21;;;;;;;6.77;5.37;;;;;;;;;;5112416;28;20188;-30
2023/01/29 01:53:52;;;;;;;7.23;4.60;;;;;;;;;;5110972;28;20220;-30
2023/01/29 01:56:21;;;;;;;7.30;6.40;;;;;;;;;;5112479;28;20188;-28
2023/01/29 01:58:50;;;;;;;8.33;6.90;;;;;;;;;;5112108;28;20227;-32
2023/01/29 02:01:20;;;;;;;7.70;6.90;;;;;;;;;;5109223;28;20735;-26
2023/01/29 02:09:34;;;;;;;6.87;5.73;;;;;;;;;;5110596;28;20190;-31
2023/01/29 02:12:01;;;;;;;7.10;5.60;;;;;;;;;;5111579;28;20547;-28
2023/01/29 02:14:30;;;;;;;6.90;5.27;;;;;;;;;;5110685;28;20224;-31
2023/01/29 02:16:57;;;;;;;7.60;5.70;;;;;;;;;;5111378;28;20680;-34
2023/01/29 02:19:30;;;;;;;6.07;5.43;;;;;;;;;;5111818;28;20223;-27
2023/01/29 02:22:07;;;;;;;7.60;5.27;;;;;;;;;;5112451;28;20200;-31
2023/01/29 02:24:49;;;;;;;7.27;5.53;;;;;;;;;;5110530;28;20230;-32
2023/01/29 02:27:17;;;;;;;6.10;5.03;;;;;;;;;;5112056;28;20195;-27
2023/01/29 02:32:57;;;;;;;6.67;5.30;;;;;;;;;;5111416;28;20178;-32
2023/01/29 02:35:27;;;;;;;8.73;5.37;;;;;;;;;;5112194;28;20188;-31
2023/01/29 02:37:58;;;;;;;5.83;4.63;;;;;;;;;;5111954;28;20488;-31
2023/01/29 02:40:28;;;;;;;7.00;5.20;;;;;;;;;;5112987;28;20208;-30
2023/01/29 02:43:00;;;;;;;8.27;5.77;;;;;;;;;;5113832;28;20382;-30
2023/01/29 02:45:31;;;;;;;7.23;5.50;;;;;;;;;;5111520;28;20192;-27
2023/01/29 02:48:00;;;;;;;6.83;5.50;;;;;;;;;;5111764;28;20192;-30
2023/01/29 02:50:30;;;;;;;7.90;5.50;;;;;;;;;;5111173;28;20222;-33
2023/01/29 02:52:59;;;;;;;6.17;5.13;;;;;;;;;;5111776;28;20678;-34
2023/01/29 02:55:29;;;;;;;7.10;5.70;;;;;;;;;;5110427;28;20208;-30
2023/01/29 02:57:58;;;;;;;7.33;5.77;;;;;;;;;;5111920;28;20195;-30
2023/01/29 03:00:27;;;;;;;7.07;5.10;;;;;;;;;;5109610;28;20234;-32
2023/01/29 03:02:57;;;;;;;9.07;5.67;;;;;;;;;;5111028;28;20292;-31
2023/01/29 03:05:29;;;;;;;6.00;5.40;;;;;;;;;;5111684;28;20185;-30
2023/01/29 03:07:59;;;;;;;7.60;5.67;;;;;;;;;;5111543;28;20227;-30
2023/01/29 03:10:29;;;;;;;8.03;5.40;;;;;;;;;;5110315;28;20211;-30
2023/01/29 03:13:00;;;;;;;7.83;5.50;;;;;;;;;;5111029;28;20231;-31
2023/01/29 03:15:30;;;;;;;8.00;5.07;;;;;;;;;;5110443;28;20199;-34
2023/01/29 03:18:00;;;;;;;8.40;5.00;;;;;;;;;;5109712;28;20188;-30
2023/01/29 03:20:31;;;;;;;8.60;5.57;;;;;;;;;;5114898;28;20314;-32
2023/01/29 03:23:01;;;;;;;8.33;5.50;;;;;;;;;;5115618;28;20632;-33
2023/01/29 03:33:49;;;;;;;6.07;5.10;;;;;;;;;;5115194;28;20235;-31
2023/01/29 03:36:20;;;;;;;6.33;4.70;;;;;;;;;;5115774;28;20223;-30
2023/01/29 03:38:48;;;;;;;5.43;4.47;;;;;;;;;;5116300;28;20211;-29
2023/01/29 03:41:18;;;;;;;6.33;4.50;;;;;;;;;;5115835;28;20234;-30
2023/01/29 03:43:48;;;;;;;5.80;4.97;;;;;;;;;;5116009;28;20224;-30
2023/01/29 03:46:22;;;;;;;6.87;5.27;;;;;;;;;;5113687;28;20199;-31
2023/01/29 03:48:54;;;;;;;5.80;4.80;;;;;;;;;;5114447;28;20192;-29
2023/01/29 03:51:25;;;;;;;5.30;4.70;;;;;;;;;;5114618;28;20192;-31
2023/01/29 03:53:54;;;;;;;5.93;4.53;;;;;;;;;;5113598;28;20224;-31
2023/01/29 03:56:27;;;;;;;5.90;4.60;;;;;;;;;;5114285;28;20204;-29
2023/01/29 03:58:57;;;;;;;6.60;4.77;;;;;;;;;;5114406;28;20188;-31
2023/01/29 04:01:28;;;;;;;5.73;4.30;;;;;;;;;;5113688;28;20230;-30
2023/01/29 04:03:57;;;;;;;5.63;4.63;;;;;;;;;;5116449;28;20224;-32
2023/01/29 04:06:26;;;;;;;7.03;4.67;;;;;;;;;;5116471;28;20363;-29
2023/01/29 04:08:57;;;;;;;6.60;4.70;;;;;;;;;;5112439;28;20199;-30
2023/01/29 04:11:25;;;;;;;5.30;3.80;;;;;;;;;;5115016;28;20630;-26
2023/01/29 04:13:52;;;;;;;7.17;5.13;;;;;;;;;;5115043;28;20224;-30
2023/01/29 04:16:22;;;;;;;6.30;4.97;;;;;;;;;;5112453;28;20227;-33
2023/01/29 04:18:49;;;;;;;8.17;5.40;;;;;;;;;;5113851;28;20200;-33
2023/01/29 04:21:17;;;;;;;5.73;4.33;;;;;;;;;;5114157;28;20652;-28
2023/01/29 04:23:45;;;;;;;5.20;4.40;;;;;;;;;;5112270;28;20231;-32
2023/01/29 04:26:37;;;;;;;4.97;4.27;;;;;;;;;;5113365;28;20361;-28
2023/01/29 04:29:21;;;;;;;4.47;4.03;;;;;;;;;;5113063;28;20192;-30
2023/01/29 04:31:53;;;;;;;6.27;4.20;;;;;;;;;;5113708;28;20192;-32
2023/01/29 04:34:23;;;;;;;7.33;4.07;;;;;;;;;;5113512;28;20223;-27
2023/01/29 04:36:58;;;;;;;5.20;4.70;;;;;;;;;;5113861;28;20216;-30
2023/01/29 04:39:29;;;;;;;5.83;4.90;;;;;;;;;;5111538;28;20196;-28
2023/01/29 04:42:01;;;;;;;5.00;4.50;;;;;;;;;;5113513;28;20199;-30
2023/01/29 04:44:34;;;;;;;5.43;4.23;;;;;;;;;;5111776;28;20226;-29
2023/01/29 04:47:05;;;;;;;4.67;4.17;;;;;;;;;;5112876;28;20215;-31
2023/01/29 04:52:42;;;;;;;4.30;3.90;;;;;;;;;;5113089;28;20163;-33
2023/01/29 04:55:14;;;;;;;5.23;4.37;;;;;;;;;;5111999;28;20212;-30
2023/01/29 04:57:47;;;;;;;5.27;4.20;;;;;;;;;;5110612;28;20200;-32
2023/01/29 05:00:17;;;;;;;5.33;4.83;;;;;;;;;;5110760;28;20211;-31
2023/01/29 05:02:45;;;;;;;4.93;4.00;;;;;;;;;;5112460;28;20192;-28
2023/01/29 05:05:14;;;;;;;7.20;4.87;;;;;;;;;;5113178;28;20210;-29
2023/01/29 05:07:43;;;;;;;5.87;4.33;;;;;;;;;;5113320;28;20203;-31
2023/01/29 05:10:13;;;;;;;9.60;4.70;;;;;;;;;;5111096;28;20212;-31
2023/01/29 05:12:41;;;;;;;5.37;4.20;;;;;;;;;;5112785;28;20188;-31
2023/01/29 05:15:11;;;;;;;5.57;4.73;;;;;;;;;;5111221;28;20208;-31
2023/01/29 05:17:38;;;;;;;4.93;3.80;;;;;;;;;;5112641;28;20203;-32
2023/01/29 05:20:06;;;;;;;5.00;4.17;;;;;;;;;;5112798;28;20227;-34
2023/01/29 05:22:36;;;;;;;4.87;4.17;;;;;;;;;;5111051;28;20476;-29
2023/01/29 05:25:03;;;;;;;5.20;4.17;;;;;;;;;;5112969;28;20231;-33
2023/01/29 05:30:37;;;;;;;4.53;3.83;;;;;;;;;;5110742;28;20179;-29
2023/01/29 05:33:05;;;;;;;4.60;3.90;;;;;;;;;;5112325;28;20234;-29
2023/01/29 05:35:33;;;;;;;5.43;4.30;;;;;;;;;;5112629;28;20663;-29
2023/01/29 05:38:00;;;;;;;6.67;3.77;;;;;;;;;;5112413;28;20211;-34
2023/01/29 05:40:27;;;;;;;6.30;4.00;;;;;;;;;;5109636;28;20234;-32
2023/01/29 05:42:55;;;;;;;4.33;3.80;;;;;;;;;;5112086;28;20238;-31
2023/01/29 05:45:22;;;;;;;6.60;5.07;;;;;;;;;;5111228;28;20243;-30
2023/01/29 05:47:50;;;;;;;5.63;4.67;;;;;;;;;;5114768;28;20200;-30
2023/01/29 05:50:17;;;;;;;4.77;4.10;;;;;;;;;;5113253;28;20210;-32
2023/01/29 05:52:44;;;;;;;4.90;4.20;;;;;;;;;;5112138;28;20200;-32
2023/01/29 05:55:12;;;;;;;4.70;3.70;;;;;;;;;;5110803;28;20203;-30
2023/01/29 05:57:40;;;;;;;6.90;4.00;;;;;;;;;;5111510;28;20208;-33
2023/01/29 06:00:08;;;;;;;4.50;4.00;;;;;;;;;;5110145;28;20228;-32
2023/01/29 06:02:35;;;;;;;4.30;3.90;;;;;;;;;;5111231;28;20261;-30
2023/01/29 06:05:03;;;;;;;4.43;3.67;;;;;;;;;;5111754;28;20221;-31
2023/01/29 06:07:31;;;;;;;4.53;4.13;;;;;;;;;;5112203;28;20204;-30
2023/01/29 06:09:58;;;;;;;5.23;4.07;;;;;;;;;;5109946;28;20199;-28
2023/01/29 06:12:25;;;;;;;5.13;4.20;;;;;;;;;;5111454;28;20199;-29
2023/01/29 06:14:54;;;;;;;6.17;4.33;;;;;;;;;;5110095;28;20224;-33
2023/01/29 06:17:21;;;;;;;4.93;3.80;;;;;;;;;;5111507;28;20200;-33
2023/01/29 06:19:49;;;;;;;5.37;4.50;;;;;;;;;;5111095;28;20568;-28
2023/01/29 06:22:17;;;;;;;5.00;4.50;;;;;;;;;;5111646;28;20564;-29
2023/01/29 06:24:44;;;;;;;5.47;4.97;;;;;;;;;;5110175;28;20230;-32
2023/01/29 06:27:11;;;;;;;8.07;4.73;;;;;;;;;;5111153;28;20204;-28
2023/01/29 06:29:38;;;;;;;6.30;4.43;;;;;;;;;;5109423;28;20209;-30
2023/01/29 06:35:09;;;;;;;5.50;3.90;;;;;;;;;;5111170;28;20209;-30
2023/01/29 06:37:38;;;;;;;5.23;4.30;;;;;;;;;;5111181;28;20212;-30
2023/01/29 06:40:06;;;;;;;6.33;4.53;;;;;;;;;;5109378;28;20204;-29
2023/01/29 06:42:35;;;;;;;6.40;4.40;;;;;;;;;;5110728;28;20212;-30
2023/01/29 06:45:02;;;;;;;5.20;4.37;;;;;;;;;;5109773;28;20204;-30
2023/01/29 06:47:29;;;;;;;5.13;4.50;;;;;;;;;;5111199;28;20763;-31
2023/01/29 06:49:57;;;;;;;5.73;4.20;;;;;;;;;;5111044;28;20203;-28
2023/01/29 06:52:27;;;;;;;7.70;4.30;;;;;;;;;;5112736;28;20300;-29
2023/01/29 06:54:56;;;;;;;5.20;4.37;;;;;;;;;;5114000;28;20230;-29
2023/01/29 06:57:23;;;;;;;5.27;4.47;;;;;;;;;;5116953;28;20204;-27
2023/01/29 06:59:50;;;;;;;5.50;4.50;;;;;;;;;;5115288;28;20207;-31
2023/01/29 07:02:18;;;;;;;5.57;4.33;;;;;;;;;;5115188;28;20231;-29
2023/01/29 07:04:45;;;;;;;5.90;4.20;;;;;;;;;;5117114;28;20243;-34
2023/01/29 07:07:12;;;;;;;5.20;4.50;;;;;;;;;;5117678;28;20200;-32
2023/01/29 07:12:44;;;;;;;5.83;4.23;;;;;;;;;;5116067;28;20175;-31
2023/01/29 07:15:18;;;;;;;5.80;4.30;;;;;;;;;;5113888;28;20662;-30
2023/01/29 07:17:45;;;;;;;5.63;4.60;;;;;;;;;;5114346;28;20189;-31
2023/01/29 07:20:12;;;;;;;5.03;3.90;;;;;;;;;;5114766;28;20204;-34
2023/01/29 07:22:39;;;;;;;5.80;4.53;;;;;;;;;;5114808;28;20678;-31
2023/01/29 07:25:07;;;;;;;5.13;4.40;;;;;;;;;;5113445;28;20203;-29
2023/01/29 07:27:34;;;;;;;6.20;4.43;;;;;;;;;;5114598;28;20229;-30
2023/01/29 07:30:03;;;;;;;5.10;4.27;;;;;;;;;;5113009;28;20204;-33
2023/01/29 07:32:30;;;;;;;5.83;4.60;;;;;;;;;;5114447;28;20208;-31
2023/01/29 07:45:20;;;;;;;6.47;4.87;;;;;;;;;;5073559;28;20205;-27
2023/01/29 07:50:55;;;;;;;6.13;4.60;;;;;;;;;;5076842;28;20172;-29
2023/01/29 08:09:18;;;;;;;5.33;4.60;;;;;;;;;;5076482;28;20204;-30
2023/01/29 08:11:45;;;;;;;5.83;4.50;;;;;;;;;;5076707;28;20205;-27
2023/01/29 08:30:10;;;;;;;6.93;4.63;;;;;;;;;;5075769;28;20244;-31
2023/01/29 08:40:25;;;;;;;5.80;5.20;;;;;;;;;;5406760;22;20229;-28
2023/01/29 08:42:52;;;;;;;7.87;5.33;;;;;;;;;;5066427;28;20200;-26
2023/01/29 08:45:20;;;;;;;6.23;5.00;;;;;;;;;;5080715;28;20224;-27
2023/01/29 08:47:48;;;;;;;6.53;5.20;;;;;;;;;;5087432;28;20203;-22
2023/01/29 08:50:15;;;;;;;6.97;5.30;;;;;;;;;;5091138;28;20204;-27
2023/01/29 08:52:43;;;;;;;5.97;4.57;;;;;;;;;;5076899;28;20219;-24
2023/01/29 08:55:10;;;;;;;7.67;4.93;;;;;;;;;;5070361;28;20219;-27
2023/01/29 08:57:37;;;;;;;5.43;4.30;;;;;;;;;;5069477;28;20208;-26
2023/01/29 09:00:05;;;;;;;5.90;4.43;;;;;;;;;;5066893;28;20205;-29
2023/01/29 09:02:33;;;;;;;6.07;4.40;;;;;;;;;;5075291;28;20282;-26
2023/01/29 09:05:00;;;;;;;4.77;4.27;;;;;;;;;;5070726;28;20204;-25
2023/01/29 09:07:29;;;;;;;5.53;4.60;;;;;;;;;;5059272;28;20209;-24
2023/01/29 09:09:56;;;;;;;6.73;5.13;;;;;;;;;;5062907;28;20205;-24
2023/01/29 09:12:23;;;;;;;10.67;7.37;;;;;;;;;;5071797;28;20228;-27
2023/01/29 09:14:50;;;;;;;11.90;6.33;;;;;;;;;;5075546;28;20208;-24
2023/01/29 09:17:17;;;;;;;9.60;6.80;;;;;;;;;;5076755;28;20201;-26
2023/01/29 09:19:46;;;;;;;9.13;6.30;;;;;;;;;;5081683;28;20200;-23
2023/01/29 09:22:13;;;;;;;7.40;5.17;;;;;;;;;;5084819;28;20233;-24
2023/01/29 09:24:40;;;;;;;7.17;5.73;;;;;;;;;;5069373;28;20213;-25
2023/01/29 09:27:08;;;;;;;7.60;4.83;;;;;;;;;;5075919;28;20223;-26
2023/01/29 09:29:36;;;;;;;6.80;5.20;;;;;;;;;;5073359;28;20202;-30
2023/01/29 09:32:03;;;;;;;6.80;5.37;;;;;;;;;;5071975;28;20225;-29
2023/01/29 09:34:30;;;;;;;6.47;5.13;;;;;;;;;;5072189;28;20672;-28
2023/01/29 09:36:58;;;;;;;8.03;5.30;;;;;;;;;;5069920;28;20201;-25
2023/01/29 09:39:25;;;;;;;6.13;4.57;;;;;;;;;;5075845;28;20567;-26
2023/01/29 09:41:57;;;;;;;7.00;5.53;;;;;;;;;;5074045;28;20229;-27
2023/01/29 09:44:28;;;;;;;5.47;4.47;;;;;;;;;;5070044;28;20656;-25
2023/01/29 09:46:56;;;;;;;6.80;4.77;;;;;;;;;;5073246;28;20196;-27
2023/01/29 09:49:25;;;;;;;6.77;5.53;;;;;;;;;;5073105;28;20201;-26
2023/01/29 09:51:53;;;;;;;6.37;4.77;;;;;;;;;;5072808;28;20213;-27
2023/01/29 09:54:23;;;;;;;6.50;5.43;;;;;;;;;;5068371;28;20206;-23
2023/01/29 09:56:53;;;;;;;5.77;4.97;;;;;;;;;;5076530;28;20250;-27
2023/01/29 09:59:22;;;;;;;6.07;5.07;;;;;;;;;;5081730;28;20200;-24
2023/01/29 10:01:54;;;;;;;5.57;4.97;;;;;;;;;;5090295;28;20251;-26
2023/01/29 10:04:32;;;;;;;6.60;4.80;;;;;;;;;;5085957;28;20215;-25
2023/01/29 10:07:06;;;;;;;5.50;4.97;;;;;;;;;;5075107;28;20212;-30
2023/01/29 10:09:40;;;;;;;6.43;5.07;;;;;;;;;;5066732;28;20219;-24
2023/01/29 10:12:15;;;;;;;7.10;5.53;;;;;;;;;;5071196;28;20232;-27
2023/01/29 10:14:44;;;;;;;6.57;5.27;;;;;;;;;;5081285;28;20205;-24
2023/01/29 10:17:20;;;;;;;8.50;5.00;;;;;;;;;;5090108;28;20200;-23
2023/01/29 10:20:05;;;;;;;8.37;5.77;;;;;;;;;;5070970;28;20208;-26
2023/01/29 10:22:43;;;;;;;6.87;5.57;;;;;;;;;;5068141;28;20217;-28
2023/01/29 10:25:13;;;;;;;6.37;4.97;;;;;;;;;;5072523;28;20232;-25
2023/01/29 10:27:43;;;;;;;6.40;5.00;;;;;;;;;;5069285;28;20217;-24
2023/01/29 10:30:21;;;;;;;5.87;4.90;;;;;;;;;;5076488;28;20212;-26
2023/01/29 10:32:49;;;;;;;6.83;5.47;;;;;;;;;;5081196;28;20193;-28
2023/01/29 10:35:20;;;;;;;12.53;6.00;;;;;;;;;;5077217;28;20201;-23
2023/01/29 10:37:48;;;;;;;8.27;6.07;;;;;;;;;;5069971;28;20239;-28
2023/01/29 10:40:21;;;;;;;7.30;5.60;;;;;;;;;;5081664;28;20212;-25
2023/01/29 10:42:50;;;;;;;8.33;5.83;;;;;;;;;;5079878;28;20225;-27
2023/01/29 10:45:24;;;;;;;7.20;5.43;;;;;;;;;;5069739;28;20212;-23
2023/01/29 10:48:03;;;;;;;8.47;5.90;;;;;;;;;;5068935;28;20204;-25
2023/01/29 10:50:38;;;;;;;7.67;5.53;;;;;;;;;;5074812;28;20210;-23
2023/01/29 10:53:23;;;;;;;8.27;5.83;;;;;;;;;;5068688;28;20201;-24
2023/01/29 10:55:56;;;;;;;6.97;5.53;;;;;;;;;;5066367;28;20226;-27
2023/01/29 10:58:28;;;;;;;8.20;5.30;;;;;;;;;;5077359;28;20208;-25
2023/01/29 11:00:55;;;;;;;8.00;5.83;;;;;;;;;;5086970;28;20224;-22
2023/01/29 11:03:23;;;;;;;8.53;5.27;;;;;;;;;;5080238;28;20229;-27
2023/01/29 11:05:53;;;;;;;6.47;4.47;;;;;;;;;;5076552;28;20205;-27
2023/01/29 11:08:22;;;;;;;7.03;5.33;;;;;;;;;;5076215;28;20204;-26
2023/01/29 11:10:53;;;;;;;8.17;5.57;;;;;;;;;;5070276;28;20584;-28
2023/01/29 11:13:22;;;;;;;7.37;5.37;;;;;;;;;;5078962;28;20208;-23
2023/01/29 11:15:52;;;;;;;6.83;4.93;;;;;;;;;;5089221;28;20204;-24
2023/01/29 11:18:19;;;;;;;6.17;5.37;;;;;;;;;;5081272;28;20201;-24
2023/01/29 11:20:46;;;;;;;4.97;4.20;;;;;;;;;;5077189;28;20221;-27
2023/01/29 11:23:26;;;;;;;7.10;5.13;;;;;;;;;;5068692;28;20513;-26
2023/01/29 11:25:54;;;;;;;6.30;4.80;;;;;;;;;;5067497;28;20259;-26
2023/01/29 11:28:36;;;;;;;6.57;5.03;;;;;;;;;;5068708;28;20228;-22
2023/01/29 11:31:15;;;;;;;7.03;5.23;;;;;;;;;;5069555;28;20233;-29
2023/01/29 11:33:42;;;;;;;6.17;5.17;;;;;;;;;;5075634;28;20702;-27
2023/01/29 11:36:24;;;;;;;7.70;5.20;;;;;;;;;;5076963;28;20206;-26
2023/01/29 11:39:05;;;;;;;8.07;6.17;;;;;;;;;;5068504;28;20217;-24
2023/01/29 11:41:42;;;;;;;7.90;6.13;;;;;;;;;;5072685;28;20309;-25
2023/01/29 11:44:18;;;;;;;7.10;5.63;;;;;;;;;;5074684;28;20251;-27
2023/01/29 11:46:47;;;;;;;8.90;6.37;;;;;;;;;;5075048;28;20205;-26
2023/01/29 11:49:22;;;;;;;8.07;5.83;;;;;;;;;;5075992;28;20208;-28
2023/01/29 11:51:53;;;;;;;8.37;5.77;;;;;;;;;;5092516;28;20513;-25
2023/01/29 11:54:20;;;;;;;6.87;5.33;;;;;;;;;;5088327;28;20205;-26
2023/01/29 11:56:50;;;;;;;6.83;5.20;;;;;;;;;;5071943;28;20202;-28
2023/01/29 11:59:25;;;;;;;7.60;5.70;;;;;;;;;;5068691;28;20698;-26
2023/01/29 12:01:54;;;;;;;7.73;5.73;;;;;;;;;;5071446;28;20224;-27
2023/01/29 12:04:23;;;;;;;9.90;5.20;;;;;;;;;;5079296;28;20708;-22
2023/01/29 12:06:52;;;;;;;6.70;5.10;;;;;;;;;;5081324;28;20201;-29
2023/01/29 12:09:20;;;;;;;7.60;5.67;;;;;;;;;;5070585;28;20201;-25
2023/01/29 12:11:48;;;;;;;6.33;4.57;;;;;;;;;;5071814;28;20218;-26
2023/01/29 12:14:25;;;;;;;6.33;5.33;;;;;;;;;;5085086;28;20651;-25
2023/01/29 12:16:54;;;;;;;6.93;5.57;;;;;;;;;;5093401;28;20691;-28
2023/01/29 12:19:27;;;;;;;6.87;5.50;;;;;;;;;;5079877;28;20205;-25
2023/01/29 12:21:56;;;;;;;6.67;5.13;;;;;;;;;;5088671;28;20232;-25
2023/01/29 12:24:30;;;;;;;7.10;5.60;;;;;;;;;;5074978;28;20205;-25
2023/01/29 12:27:00;;;;;;;33.97;22.53;;;;;;;;;;5078536;28;20209;-23
2023/01/29 12:29:32;;;;;;;10.13;7.00;;;;;;;;;;5082760;28;20200;-24
2023/01/29 12:32:04;;;;;;;7.53;6.03;;;;;;;;;;5078371;28;20236;-30
2023/01/29 12:34:38;;;;;;;8.77;6.33;;;;;;;;;;5080892;28;20205;-27
2023/01/29 12:37:10;;;;;;;7.73;5.63;;;;;;;;;;5089134;28;20243;-23
2023/01/29 12:39:37;;;;;;;7.07;5.93;;;;;;;;;;5082384;28;20288;-26
2023/01/29 12:42:05;;;;;;;7.33;5.90;;;;;;;;;;5080138;28;20740;-27
2023/01/29 12:44:36;;;;;;;8.57;6.70;;;;;;;;;;5077621;28;20424;-25
2023/01/29 12:47:06;;;;;;;9.00;6.23;;;;;;;;;;5082592;28;20205;-29
2023/01/29 12:49:36;;;;;;;7.63;5.93;;;;;;;;;;5076569;28;20217;-25
2023/01/29 12:52:04;;;;;;;6.90;5.83;;;;;;;;;;5073177;28;20228;-23
2023/01/29 12:54:35;;;;;;;7.47;5.17;;;;;;;;;;5085446;28;20442;-24
2023/01/29 12:57:04;;;;;;;7.73;5.57;;;;;;;;;;5073790;28;20212;-26
2023/01/29 12:59:33;;;;;;;6.50;5.13;;;;;;;;;;5077809;28;21258;-25
2023/01/29 13:02:02;;;;;;;7.93;4.73;;;;;;;;;;5075244;28;20233;-26
2023/01/29 13:04:32;;;;;;;10.20;5.70;;;;;;;;;;5087461;28;20205;-25
2023/01/29 13:07:05;;;;;;;10.97;5.33;;;;;;;;;;5076607;28;20227;-28
2023/01/29 13:09:33;;;;;;;6.03;4.63;;;;;;;;;;5075339;28;20205;-23
2023/01/29 13:12:03;;;;;;;5.07;4.47;;;;;;;;;;5078226;28;20228;-27
2023/01/29 13:14:37;;;;;;;6.67;4.47;;;;;;;;;;5078248;28;20209;-24
2023/01/29 13:17:09;;;;;;;8.90;4.57;;;;;;;;;;5079790;28;20221;-24
2023/01/29 13:19:39;;;;;;;6.67;4.37;;;;;;;;;;5069663;28;20549;-27
2023/01/29 13:22:15;;;;;;;6.60;4.70;;;;;;;;;;5070136;28;20233;-26
2023/01/29 13:24:43;;;;;;;5.77;4.63;;;;;;;;;;5072859;28;20209;-25
2023/01/29 13:27:19;;;;;;;5.73;4.67;;;;;;;;;;5079224;28;20685;-25
2023/01/29 13:29:48;;;;;;;8.67;5.37;;;;;;;;;;5086742;28;20215;-24
2023/01/29 13:32:20;;;;;;;5.27;4.13;;;;;;;;;;5071047;28;20225;-25
2023/01/29 13:34:48;;;;;;;5.70;4.40;;;;;;;;;;5068834;28;20220;-24
2023/01/29 13:37:28;;;;;;;7.70;5.03;;;;;;;;;;5070682;28;20205;-27
2023/01/29 13:39:56;;;;;;;7.40;4.33;;;;;;;;;;5068077;28;20208;-28
2023/01/29 13:42:24;;;;;;;5.07;4.57;;;;;;;;;;5083458;28;20224;-24
2023/01/29 13:44:53;;;;;;;4.20;3.17;;;;;;;;;;5077877;28;20208;-25
2023/01/29 13:47:26;;;;;;;4.73;3.80;;;;;;;;;;5078737;28;20565;-26
2023/01/29 13:49:56;;;;;;;4.90;3.73;;;;;;;;;;5071762;28;20254;-27
2023/01/29 13:52:29;;;;;;;5.30;3.50;;;;;;;;;;5078354;28;20228;-25
2023/01/29 13:54:57;;;;;;;7.13;3.90;;;;;;;;;;5069108;28;20205;-26
2023/01/29 13:57:48;;;;;;;4.63;3.40;;;;;;;;;;5077919;28;20683;-23
2023/01/29 14:00:34;;;;;;;4.20;3.80;;;;;;;;;;5079030;28;20209;-27
2023/01/29 14:03:20;;;;;;;5.57;3.93;;;;;;;;;;5071095;28;20225;-25
2023/01/29 14:05:58;;;;;;;4.43;3.93;;;;;;;;;;5075784;28;20684;-23
2023/01/29 14:08:40;;;;;;;5.00;3.17;;;;;;;;;;5071761;28;20229;-27
2023/01/29 14:11:25;;;;;;;5.40;3.43;;;;;;;;;;5068993;28;20233;-24
2023/01/29 14:13:52;;;;;;;5.87;3.80;;;;;;;;;;5068409;28;20318;-27
2023/01/29 14:16:29;;;;;;;4.40;3.60;;;;;;;;;;5080073;28;20201;-26
2023/01/29 14:18:57;;;;;;;4.33;3.67;;;;;;;;;;5066817;28;20246;-25
2023/01/29 14:21:28;;;;;;;5.17;3.10;;;;;;;;;;5064256;28;20225;-24
2023/01/29 14:23:57;;;;;;;5.27;3.90;;;;;;;;;;5069176;28;20560;-25
2023/01/29 14:26:27;;;;;;;4.90;4.23;;;;;;;;;;5071670;28;20228;-24
2023/01/29 14:28:58;;;;;;;4.30;3.57;;;;;;;;;;5086262;28;20204;-26
2023/01/29 14:31:29;;;;;;;3.10;2.60;;;;;;;;;;5069335;28;20817;-24
2023/01/29 14:34:00;;;;;;;4.23;3.57;;;;;;;;;;5067237;28;20655;-27
2023/01/29 14:36:28;;;;;;;5.27;4.07;;;;;;;;;;5066011;28;20293;-26
2023/01/29 14:38:58;;;;;;;5.77;4.50;;;;;;;;;;5066057;28;20229;-24
2023/01/29 14:41:26;;;;;;;7.33;4.80;;;;;;;;;;5076867;28;20739;-26
2023/01/29 14:44:09;;;;;;;5.57;4.00;;;;;;;;;;5066617;28;20221;-27
2023/01/29 14:46:43;;;;;;;6.27;4.00;;;;;;;;;;5084050;28;20205;-30
2023/01/29 14:49:10;;;;;;;4.97;4.27;;;;;;;;;;5072558;28;20261;-25
2023/01/29 14:51:39;;;;;;;5.73;4.23;;;;;;;;;;5079790;28;21039;-25
2023/01/29 14:54:14;;;;;;;4.50;3.70;;;;;;;;;;5065056;28;20209;-26
2023/01/29 14:56:46;;;;;;;5.53;3.63;;;;;;;;;;5070959;28;20197;-26
2023/01/29 14:59:16;;;;;;;5.17;3.80;;;;;;;;;;5085525;28;20209;-29
2023/01/29 15:01:47;;;;;;;4.00;3.47;;;;;;;;;;5074313;28;20229;-27
2023/01/29 15:04:18;;;;;;;4.77;4.13;;;;;;;;;;5075573;28;20310;-22
2023/01/29 15:06:46;;;;;;;5.70;4.17;;;;;;;;;;5068354;28;20308;-24
2023/01/29 15:09:17;;;;;;;4.03;3.50;;;;;;;;;;5073672;28;20667;-21
2023/01/29 15:11:49;;;;;;;4.13;3.47;;;;;;;;;;5069364;28;20228;-26
2023/01/29 15:14:25;;;;;;;3.83;3.20;;;;;;;;;;5072612;28;20193;-25
2023/01/29 15:16:56;;;;;;;5.73;4.00;;;;;;;;;;5080741;28;20706;-25
2023/01/29 15:19:26;;;;;;;4.30;3.20;;;;;;;;;;5074322;28;20213;-26
2023/01/29 15:22:03;;;;;;;5.30;4.23;;;;;;;;;;5082611;28;20224;-28
2023/01/29 15:24:32;;;;;;;4.70;3.73;;;;;;;;;;5080652;28;20228;-24
2023/01/29 15:26:59;;;;;;;7.73;3.70;;;;;;;;;;5077359;28;20217;-27
2023/01/29 15:29:28;;;;;;;5.77;3.90;;;;;;;;;;5072345;28;20193;-25
2023/01/29 15:31:56;;;;;;;5.30;3.60;;;;;;;;;;5080852;28;20699;-27
2023/01/29 15:34:23;;;;;;;4.43;3.40;;;;;;;;;;5069111;28;20228;-27
2023/01/29 15:36:50;;;;;;;4.73;3.63;;;;;;;;;;5081090;28;20212;-27
2023/01/29 15:39:18;;;;;;;5.37;3.40;;;;;;;;;;5078048;28;20212;-24
2023/01/29 15:41:47;;;;;;;4.63;3.30;;;;;;;;;;5075671;28;20237;-26
2023/01/29 15:44:17;;;;;;;4.73;3.80;;;;;;;;;;5072092;28;20229;-24
2023/01/29 15:46:45;;;;;;;3.47;3.00;;;;;;;;;;5079983;28;20201;-24
2023/01/29 15:49:19;;;;;;;6.10;3.77;;;;;;;;;;5086684;28;20629;-26
2023/01/29 15:51:47;;;;;;;5.07;3.73;;;;;;;;;;5076587;28;20285;-26
2023/01/29 15:54:16;;;;;;;5.03;3.70;;;;;;;;;;5075375;28;20662;-27
2023/01/29 15:56:45;;;;;;;6.47;4.20;;;;;;;;;;5073319;28;20212;-24
2023/01/29 15:59:17;;;;;;;6.13;4.27;;;;;;;;;;5071274;28;20207;-25
2023/01/29 16:01:44;;;;;;;5.40;4.17;;;;;;;;;;5078476;28;20221;-26
2023/01/29 16:04:13;;;;;;;5.63;3.77;;;;;;;;;;5074470;28;20242;-25
2023/01/29 16:06:41;;;;;;;6.63;4.27;;;;;;;;;;5071642;28;20216;-28
2023/01/29 16:09:09;;;;;;;5.93;3.53;;;;;;;;;;5072414;28;20206;-24
2023/01/29 16:11:36;;;;;;;4.30;3.43;;;;;;;;;;5076669;28;20227;-27
2023/01/29 16:14:04;;;;;;;4.77;3.47;;;;;;;;;;5071277;28;20225;-27
2023/01/29 16:16:32;;;;;;;4.47;3.47;;;;;;;;;;5071512;28;20193;-26
2023/01/29 16:18:59;;;;;;;3.83;3.20;;;;;;;;;;5071578;28;20205;-25
2023/01/29 16:21:29;;;;;;;8.13;4.57;;;;;;;;;;5081337;28;20221;-24
2023/01/29 16:23:57;;;;;;;7.03;4.00;;;;;;;;;;5073092;28;20232;-25
2023/01/29 16:26:25;;;;;;;6.97;4.97;;;;;;;;;;5080070;28;20212;-25
2023/01/29 16:28:53;;;;;;;5.37;4.27;;;;;;;;;;5070399;28;20620;-23
2023/01/29 16:31:25;;;;;;;5.53;4.30;;;;;;;;;;5071398;28;20224;-26
2023/01/29 16:33:55;;;;;;;5.63;4.27;;;;;;;;;;5080307;28;20225;-24
2023/01/29 16:36:24;;;;;;;5.23;3.90;;;;;;;;;;5070604;28;20216;-27
2023/01/29 16:38:53;;;;;;;4.50;3.77;;;;;;;;;;5086894;28;20201;-24